createdAt,value
2023-02-14T00:01:27.958Z,7.41
2023-02-14T00:04:00.544Z,6.94
2023-02-14T00:06:28.889Z,6.91
2023-02-14T00:08:56.663Z,6.05
2023-02-14T00:11:24.512Z,5.87
2023-02-14T00:14:06.190Z,5.91
2023-02-14T00:16:35.330Z,5.87
2023-02-14T00:19:06.303Z,5.78
2023-02-14T00:21:36.906Z,5.73
2023-02-14T00:24:05.439Z,5.46
2023-02-14T00:26:33.282Z,5.45
2023-02-14T00:29:01.085Z,5.40
2023-02-14T00:31:29.031Z,6.07
2023-02-14T00:33:58.312Z,6.15
2023-02-14T00:36:26.081Z,6.41
2023-02-14T00:38:54.012Z,6.07
2023-02-14T00:41:21.883Z,5.43
2023-02-14T00:43:53.671Z,5.11
2023-02-14T00:46:23.967Z,5.39
2023-02-14T00:48:52.317Z,5.41
2023-02-14T00:51:22.170Z,5.87
2023-02-14T00:53:51.899Z,6.08
2023-02-14T00:56:21.394Z,6.03
2023-02-14T00:58:49.593Z,6.01
2023-02-14T01:01:19.012Z,5.92
2023-02-14T01:03:46.943Z,5.73
2023-02-14T01:06:14.752Z,5.72
2023-02-14T01:08:43.871Z,5.32
2023-02-14T01:11:14.097Z,4.86
2023-02-14T01:13:42.885Z,4.80
2023-02-14T01:16:14.669Z,5.12
2023-02-14T01:18:43.024Z,5.46
2023-02-14T01:21:13.008Z,5.56
2023-02-14T01:23:40.907Z,5.51
2023-02-14T01:26:10.412Z,5.60
2023-02-14T01:28:38.558Z,5.25
2023-02-14T01:31:11.655Z,5.25
2023-02-14T01:33:40.176Z,5.16
2023-02-14T01:36:15.415Z,5.62
2023-02-14T01:38:43.186Z,5.74
2023-02-14T01:41:12.914Z,5.57
2023-02-14T01:43:55.781Z,5.10
2023-02-14T01:46:26.009Z,5.34
2023-02-14T01:48:56.717Z,5.41
2023-02-14T01:51:25.790Z,5.33
2023-02-14T01:53:55.491Z,5.30
2023-02-14T01:56:29.764Z,5.35
2023-02-14T01:59:02.288Z,5.30
2023-02-14T02:01:31.371Z,5.30
2023-02-14T02:04:08.092Z,5.43
2023-02-14T02:06:41.285Z,5.68
2023-02-14T02:09:14.198Z,5.32
2023-02-14T02:11:43.999Z,4.67
2023-02-14T02:14:15.622Z,5.18
2023-02-14T02:16:57.855Z,5.13
2023-02-14T02:19:51.516Z,4.79
2023-02-14T02:23:04.201Z,4.63
2023-02-14T02:25:49.637Z,4.72
2023-02-14T02:28:39.587Z,4.83
2023-02-14T02:31:36.429Z,4.88
2023-02-14T02:35:11.234Z,4.91
2023-02-14T02:37:48.562Z,5.05
2023-02-14T02:40:30.530Z,5.11
2023-02-14T02:43:12.169Z,5.16
2023-02-14T02:46:06.132Z,5.08
2023-02-14T02:48:41.570Z,5.06
2023-02-14T02:51:34.862Z,5.02
2023-02-14T02:54:14.399Z,5.04
2023-02-14T02:56:51.085Z,4.70
2023-02-14T02:59:23.509Z,4.59
2023-02-14T03:02:00.786Z,4.61
2023-02-14T03:04:47.056Z,4.79
2023-02-14T03:07:33.749Z,5.00
2023-02-14T03:10:06.107Z,5.10
2023-02-14T03:13:10.240Z,5.18
2023-02-14T03:16:05.573Z,5.20
2023-02-14T03:19:16.004Z,5.13
2023-02-14T03:21:55.294Z,4.84
2023-02-14T03:24:31.964Z,4.28
2023-02-14T03:27:06.762Z,4.72
2023-02-14T03:29:45.010Z,4.60
2023-02-14T03:32:19.380Z,4.46
2023-02-14T03:34:57.662Z,4.59
2023-02-14T03:37:29.795Z,4.62
2023-02-14T03:40:07.496Z,4.49
2023-02-14T03:42:40.017Z,4.48
2023-02-14T03:45:14.316Z,4.23
2023-02-14T03:47:44.792Z,4.42
2023-02-14T03:50:17.874Z,4.33
2023-02-14T03:52:47.622Z,4.22
2023-02-14T03:55:21.062Z,4.26
2023-02-14T03:57:54.516Z,4.22
2023-02-14T04:00:22.457Z,4.31
2023-02-14T04:02:54.788Z,4.33
2023-02-14T04:05:25.306Z,4.15
2023-02-14T04:07:55.521Z,3.94
2023-02-14T04:10:25.761Z,4.11
2023-02-14T04:12:53.952Z,4.09
2023-02-14T04:15:22.127Z,3.92
2023-02-14T04:18:07.328Z,4.03
2023-02-14T04:20:35.179Z,4.06
2023-02-14T04:23:03.605Z,3.95
2023-02-14T04:25:33.692Z,3.91
2023-02-14T04:28:01.479Z,4.12
2023-02-14T04:30:29.300Z,3.75
2023-02-14T04:32:57.144Z,4.00
2023-02-14T04:35:25.013Z,3.99
2023-02-14T04:37:53.803Z,4.04
2023-02-14T04:40:21.651Z,3.97
2023-02-14T04:42:50.780Z,3.73
2023-02-14T04:45:18.641Z,3.48
2023-02-14T04:47:46.712Z,3.85
2023-02-14T04:50:15.523Z,3.46
2023-02-14T04:52:43.418Z,3.71
2023-02-14T04:55:11.582Z,3.77
2023-02-14T04:57:39.352Z,3.81
2023-02-14T05:00:11.059Z,3.78
2023-02-14T05:02:38.966Z,3.72
2023-02-14T05:05:07.765Z,3.69
2023-02-14T05:07:35.934Z,3.66
2023-02-14T05:10:04.151Z,2.95
2023-02-14T05:12:32.019Z,3.55
2023-02-14T05:14:59.940Z,3.80
2023-02-14T05:17:29.178Z,3.60
2023-02-14T05:19:57.074Z,3.24
2023-02-14T05:22:24.909Z,3.13
2023-02-14T05:24:52.782Z,3.41
2023-02-14T05:27:20.684Z,3.01
2023-02-14T05:29:48.531Z,2.88
2023-02-14T05:32:16.721Z,2.86
2023-02-14T05:34:45.935Z,2.65
2023-02-14T05:37:13.787Z,2.80
2023-02-14T05:39:41.518Z,3.38
2023-02-14T05:42:12.293Z,3.08
2023-02-14T05:44:40.042Z,3.42
2023-02-14T05:47:08.017Z,3.50
2023-02-14T05:49:36.687Z,3.39
2023-02-14T05:52:06.302Z,3.46
2023-02-14T05:54:34.152Z,2.99
2023-02-14T05:57:01.906Z,3.26
2023-02-14T05:59:29.735Z,3.59
2023-02-14T06:01:57.587Z,3.47
2023-02-14T06:04:25.511Z,3.63
2023-02-14T06:06:53.396Z,3.68
2023-02-14T06:09:22.587Z,3.32
2023-02-14T06:11:50.453Z,2.44
2023-02-14T06:14:18.366Z,2.19
2023-02-14T06:16:46.426Z,2.27
2023-02-14T06:19:14.312Z,2.01
2023-02-14T06:21:42.213Z,2.46
2023-02-14T06:24:10.660Z,2.19
2023-02-14T06:26:39.896Z,2.56
2023-02-14T06:29:07.698Z,2.64
2023-02-14T06:31:35.737Z,2.53
2023-02-14T06:34:03.638Z,2.57
2023-02-14T06:36:31.594Z,2.40
2023-02-14T06:38:59.439Z,2.75
2023-02-14T06:41:27.298Z,3.14
2023-02-14T06:43:56.438Z,2.89
2023-02-14T06:46:24.554Z,2.76
2023-02-14T06:48:52.465Z,2.29
2023-02-14T06:51:20.349Z,3.01
2023-02-14T06:53:48.182Z,2.28
2023-02-14T06:56:16.010Z,3.05
2023-02-14T06:58:43.907Z,2.67
2023-02-14T07:01:13.179Z,2.60
2023-02-14T07:03:41.041Z,2.72
2023-02-14T07:06:09.001Z,3.35
2023-02-14T07:08:37.018Z,3.75
2023-02-14T07:11:04.967Z,3.50
2023-02-14T07:13:32.844Z,3.16
2023-02-14T07:16:00.702Z,3.27
2023-02-14T07:18:29.973Z,3.30
2023-02-14T07:20:58.186Z,2.81
2023-02-14T07:23:26.396Z,3.37
2023-02-14T07:25:54.303Z,3.38
2023-02-14T07:28:22.358Z,4.02
2023-02-14T07:30:50.348Z,4.02
2023-02-14T07:33:18.241Z,4.27
2023-02-14T07:35:47.501Z,4.22
2023-02-14T07:38:15.395Z,4.42
2023-02-14T07:40:43.310Z,4.28
2023-02-14T07:43:11.252Z,4.54
2023-02-14T07:45:39.074Z,5.19
2023-02-14T07:48:07.498Z,5.46
2023-02-14T07:50:35.366Z,5.89
2023-02-14T07:53:04.632Z,6.01
2023-02-14T07:55:32.580Z,6.01
2023-02-14T07:58:00.533Z,5.96
2023-02-14T08:00:28.578Z,6.03
2023-02-14T08:02:56.816Z,6.33
2023-02-14T08:05:24.865Z,6.59
2023-02-14T08:07:52.780Z,6.89
2023-02-14T08:10:22.011Z,7.09
2023-02-14T08:13:03.593Z,7.27
2023-02-14T08:15:50.618Z,7.52
2023-02-14T08:18:19.664Z,7.60
2023-02-14T08:20:49.870Z,7.71
2023-02-14T08:23:18.148Z,8.05
2023-02-14T08:25:47.702Z,8.27
2023-02-14T08:28:15.708Z,8.35
2023-02-14T08:30:43.895Z,8.35
2023-02-14T08:33:12.208Z,8.81
2023-02-14T08:35:40.142Z,8.60
2023-02-14T08:38:08.253Z,8.81
2023-02-14T08:40:37.395Z,9.34
2023-02-14T08:43:07.714Z,9.58
2023-02-14T08:45:36.262Z,9.66
2023-02-14T08:48:05.929Z,9.38
2023-02-14T08:50:34.504Z,9.60
2023-02-14T08:53:02.766Z,9.88
2023-02-14T08:55:30.629Z,10.12
2023-02-14T08:58:00.452Z,10.05
2023-02-14T09:00:29.812Z,10.42
2023-02-14T09:02:57.816Z,10.42
2023-02-14T09:05:25.914Z,10.74
2023-02-14T09:07:55.935Z,10.35
2023-02-14T09:10:24.876Z,10.74
2023-02-14T09:12:53.355Z,10.72
2023-02-14T09:15:21.339Z,11.09
2023-02-14T09:17:51.147Z,11.19
2023-02-14T09:20:19.280Z,11.35
2023-02-14T09:22:48.756Z,11.69
2023-02-14T09:25:17.351Z,11.60
2023-02-14T09:27:45.404Z,11.44
2023-02-14T09:30:14.254Z,11.84
2023-02-14T09:32:42.142Z,11.58
2023-02-14T09:35:11.452Z,11.33
2023-02-14T09:37:39.396Z,11.27
2023-02-14T09:40:08.209Z,11.65
2023-02-14T09:42:46.575Z,11.25
2023-02-14T09:45:16.861Z,10.97
2023-02-14T09:47:49.900Z,10.72
2023-02-14T09:50:25.712Z,11.59
2023-02-14T09:52:58.106Z,11.37
2023-02-14T09:55:32.215Z,12.23
2023-02-14T09:58:08.166Z,12.72
2023-02-14T10:00:39.572Z,12.98
2023-02-14T10:03:31.855Z,13.35
2023-02-14T10:06:10.280Z,12.95
2023-02-14T10:08:56.949Z,12.67
2023-02-14T10:11:25.754Z,12.49
2023-02-14T10:13:58.901Z,12.86
2023-02-14T10:16:31.531Z,12.48
2023-02-14T10:19:03.379Z,13.00
2023-02-14T10:21:40.390Z,12.81
2023-02-14T10:24:17.168Z,12.99
2023-02-14T10:26:46.579Z,12.89
2023-02-14T10:29:17.332Z,13.71
2023-02-14T10:31:55.720Z,13.76
2023-02-14T10:34:31.842Z,14.03
2023-02-14T10:37:33.637Z,14.26
2023-02-14T10:40:21.774Z,14.45
2023-02-14T10:42:58.862Z,14.95
2023-02-14T10:45:34.549Z,15.07
2023-02-14T10:48:10.228Z,15.26
2023-02-14T10:50:42.498Z,14.89
2023-02-14T10:53:20.666Z,14.85
2023-02-14T10:55:53.832Z,14.99
2023-02-14T10:58:23.616Z,15.55
2023-02-14T11:01:01.034Z,15.81
2023-02-14T11:03:30.534Z,16.36
2023-02-14T11:05:58.420Z,16.22
2023-02-14T11:08:32.616Z,18.39
2023-02-14T11:11:08.749Z,21.36
2023-02-14T11:13:38.692Z,23.00
2023-02-14T11:16:08.917Z,23.15
2023-02-14T11:18:39.974Z,26.25
2023-02-14T11:21:10.892Z,25.67
2023-02-14T11:23:42.464Z,22.40
2023-02-14T11:26:17.526Z,21.41
2023-02-14T11:28:54.363Z,21.83
2023-02-14T11:31:28.116Z,23.91
2023-02-14T11:33:56.166Z,23.92
2023-02-14T11:36:24.768Z,20.30
2023-02-14T11:39:03.116Z,20.45
2023-02-14T11:41:47.854Z,19.47
2023-02-14T11:44:22.552Z,19.80
2023-02-14T11:46:53.448Z,19.07
2023-02-14T11:49:30.951Z,19.70
2023-02-14T11:52:01.332Z,19.96
2023-02-14T11:54:37.689Z,21.39
2023-02-14T11:57:09.706Z,22.90
2023-02-14T11:59:41.838Z,22.45
2023-02-14T12:02:26.175Z,22.32
2023-02-14T12:04:56.996Z,20.93
2023-02-14T12:07:29.742Z,20.81
2023-02-14T12:10:22.971Z,20.00
2023-02-14T12:12:53.630Z,19.35
2023-02-14T12:15:28.313Z,19.66
2023-02-14T12:18:03.910Z,23.34
2023-02-14T12:20:41.925Z,24.15
2023-02-14T12:23:19.123Z,22.71
2023-02-14T12:25:55.546Z,21.45
2023-02-14T12:28:30.805Z,21.87
2023-02-14T12:30:59.267Z,21.83
2023-02-14T12:33:27.489Z,20.99
2023-02-14T12:36:05.472Z,20.89
2023-02-14T12:38:44.734Z,20.18
2023-02-14T12:41:30.942Z,19.73
2023-02-14T12:44:02.767Z,19.55
2023-02-14T12:46:55.932Z,20.85
2023-02-14T12:49:52.467Z,20.88
2023-02-14T12:52:39.767Z,20.11
2023-02-14T12:55:28.582Z,20.21
2023-02-14T12:58:05.209Z,21.06
2023-02-14T13:00:43.657Z,21.69
2023-02-14T13:03:39.496Z,21.96
2023-02-14T13:06:15.712Z,22.59
2023-02-14T13:09:01.549Z,24.42
2023-02-14T13:11:37.985Z,24.33
2023-02-14T13:14:16.594Z,25.08
2023-02-14T13:16:51.203Z,24.90
2023-02-14T13:19:36.246Z,26.24
2023-02-14T13:22:06.893Z,24.32
2023-02-14T13:24:41.256Z,23.16
2023-02-14T13:27:15.083Z,23.55
2023-02-14T13:29:48.195Z,22.99
2023-02-14T13:32:20.221Z,22.88
2023-02-14T13:34:50.108Z,21.78
2023-02-14T13:37:20.579Z,22.39
2023-02-14T13:39:52.504Z,21.75
2023-02-14T13:42:54.845Z,22.71
2023-02-14T13:45:56.086Z,26.07
2023-02-14T13:48:27.502Z,27.19
2023-02-14T13:50:58.310Z,23.56
2023-02-14T13:53:48.876Z,23.57
2023-02-14T13:56:35.688Z,22.33
2023-02-14T13:59:06.993Z,20.75
2023-02-14T14:01:40.489Z,21.88
2023-02-14T14:04:35.256Z,22.38
2023-02-14T14:07:27.065Z,22.18
2023-02-14T14:10:03.562Z,22.63
2023-02-14T14:12:39.712Z,23.68
2023-02-14T14:15:19.415Z,25.67
2023-02-14T14:18:11.899Z,24.95
2023-02-14T14:20:47.850Z,22.82
2023-02-14T14:23:30.975Z,22.64
2023-02-14T14:25:59.711Z,21.55
2023-02-14T14:28:31.231Z,22.49
2023-02-14T14:30:59.677Z,23.11
2023-02-14T14:33:32.551Z,23.60
2023-02-14T14:36:02.872Z,24.63
2023-02-14T14:38:31.973Z,24.33
2023-02-14T14:41:01.180Z,24.01
2023-02-14T14:43:32.526Z,24.98
2023-02-14T14:46:02.983Z,26.05
2023-02-14T14:48:38.473Z,25.97
2023-02-14T14:51:08.594Z,24.90
2023-02-14T14:53:44.418Z,25.37
2023-02-14T14:56:14.552Z,24.59
2023-02-14T14:58:43.229Z,25.57
2023-02-14T15:01:21.361Z,26.57
2023-02-14T15:03:50.726Z,27.44
2023-02-14T15:06:22.289Z,28.01
2023-02-14T15:08:51.477Z,28.19
2023-02-14T15:11:37.442Z,28.94
2023-02-14T15:14:09.013Z,29.55
2023-02-14T15:16:42.751Z,30.13
2023-02-14T15:19:19.316Z,29.77
2023-02-14T15:21:47.436Z,28.32
2023-02-14T15:24:18.416Z,27.12
2023-02-14T15:26:48.034Z,24.82
2023-02-14T15:29:23.131Z,23.72
2023-02-14T15:31:51.715Z,23.27
2023-02-14T15:34:24.792Z,22.01
2023-02-14T15:36:57.494Z,21.70
2023-02-14T15:39:30.812Z,20.55
2023-02-14T15:41:58.638Z,20.17
2023-02-14T15:44:27.638Z,20.03
2023-02-14T15:46:58.098Z,19.76
2023-02-14T15:49:33.788Z,20.02
2023-02-14T15:52:04.621Z,20.01
2023-02-14T15:54:38.132Z,19.04
2023-02-14T15:57:08.850Z,18.32
2023-02-14T15:59:41.045Z,17.98
2023-02-14T16:02:25.262Z,17.75
2023-02-14T16:04:54.633Z,17.63
2023-02-14T16:07:27.255Z,17.44
2023-02-14T16:10:22.077Z,17.37
2023-02-14T16:12:58.996Z,17.08
2023-02-14T16:15:28.630Z,17.08
2023-02-14T16:17:56.723Z,16.87
2023-02-14T16:20:39.763Z,16.54
2023-02-14T16:23:25.276Z,16.42
2023-02-14T16:25:54.060Z,16.20
2023-02-14T16:28:22.927Z,15.65
2023-02-14T16:30:55.938Z,15.55
2023-02-14T16:33:26.309Z,15.27
2023-02-14T16:35:55.850Z,14.67
2023-02-14T16:38:23.840Z,14.54
2023-02-14T16:40:54.278Z,14.36
2023-02-14T16:43:22.195Z,14.12
2023-02-14T16:45:50.340Z,13.82
2023-02-14T16:48:18.161Z,13.62
2023-02-14T16:50:47.477Z,13.96
2023-02-14T16:53:24.993Z,13.84
2023-02-14T16:55:54.602Z,13.92
2023-02-14T16:58:24.460Z,13.62
2023-02-14T17:00:52.411Z,13.49
2023-02-14T17:03:20.608Z,13.37
2023-02-14T17:05:48.493Z,13.37
2023-02-14T17:08:18.151Z,12.81
2023-02-14T17:10:48.475Z,12.98
2023-02-14T17:13:19.929Z,12.75
2023-02-14T17:15:48.334Z,12.41
2023-02-14T17:18:18.257Z,12.27
2023-02-14T17:20:46.107Z,12.18
2023-02-14T17:23:13.883Z,12.11
2023-02-14T17:25:43.169Z,11.72
2023-02-14T17:28:11.029Z,11.78
2023-02-14T17:30:38.874Z,11.80
2023-02-14T17:33:06.610Z,11.69
2023-02-14T17:35:35.033Z,11.52
2023-02-14T17:38:03.243Z,11.38
2023-02-14T17:40:32.223Z,11.23
2023-02-14T17:43:01.525Z,11.23
2023-02-14T17:45:29.584Z,11.09
2023-02-14T17:47:57.374Z,10.93
2023-02-14T17:50:25.255Z,10.84
2023-02-14T17:52:55.062Z,10.73
2023-02-14T17:55:23.420Z,10.65
2023-02-14T17:57:52.558Z,10.56
2023-02-14T18:00:25.004Z,10.44
2023-02-14T18:02:52.926Z,10.40
2023-02-14T18:05:20.767Z,10.31
2023-02-14T18:07:48.588Z,10.21
2023-02-14T18:10:16.366Z,10.16
2023-02-14T18:12:44.226Z,10.03
2023-02-14T18:15:12.017Z,9.91
2023-02-14T18:17:41.170Z,9.69
2023-02-14T18:20:09.854Z,9.72
2023-02-14T18:22:37.748Z,9.61
2023-02-14T18:25:06.137Z,9.70
2023-02-14T18:27:33.855Z,9.76
2023-02-14T18:30:01.763Z,9.49
2023-02-14T18:32:29.571Z,9.53
2023-02-14T18:34:58.635Z,9.39
2023-02-14T18:37:26.361Z,9.58
2023-02-14T18:39:54.194Z,9.85
2023-02-14T18:42:21.958Z,9.26
2023-02-14T18:44:49.694Z,9.04
2023-02-14T18:47:17.549Z,9.21
2023-02-14T18:49:45.269Z,9.08
2023-02-14T18:52:14.465Z,9.10
2023-02-14T18:54:42.568Z,8.90
2023-02-14T18:57:10.336Z,8.83
2023-02-14T18:59:39.196Z,8.79
2023-02-14T19:02:07.311Z,8.64
2023-02-14T19:04:35.291Z,8.81
2023-02-14T19:07:04.453Z,8.76
2023-02-14T19:09:38.979Z,8.65
2023-02-14T19:12:07.448Z,8.57
2023-02-14T19:14:35.288Z,9.46
2023-02-14T19:17:04.345Z,9.27
2023-02-14T19:19:32.591Z,9.29
2023-02-14T19:22:00.950Z,8.46
2023-02-14T19:24:29.064Z,8.34
2023-02-14T19:26:58.428Z,8.22
2023-02-14T19:29:26.195Z,8.10
2023-02-14T19:31:55.716Z,8.14
2023-02-14T19:34:27.872Z,8.12
2023-02-14T19:36:59.036Z,7.72
2023-02-14T19:39:29.412Z,7.87
2023-02-14T19:41:59.699Z,7.73
2023-02-14T19:44:29.265Z,7.61
2023-02-14T19:46:59.908Z,7.44
2023-02-14T19:49:29.790Z,7.15
2023-02-14T19:51:58.846Z,7.42
2023-02-14T19:54:27.059Z,7.50
2023-02-14T19:56:56.269Z,7.50
2023-02-14T19:59:25.594Z,7.75
2023-02-14T20:01:54.773Z,7.70
2023-02-14T20:04:25.159Z,7.87
2023-02-14T20:06:53.538Z,7.87
2023-02-14T20:09:22.790Z,7.92
2023-02-14T20:11:54.200Z,7.78
2023-02-14T20:14:23.937Z,7.78
2023-02-14T20:16:54.549Z,7.62
2023-02-14T20:19:26.897Z,7.66
2023-02-14T20:21:55.365Z,7.34
2023-02-14T20:24:25.095Z,7.32
2023-02-14T20:26:53.907Z,7.24
2023-02-14T20:29:23.363Z,6.92
2023-02-14T20:31:54.393Z,7.09
2023-02-14T20:34:22.584Z,7.07
2023-02-14T20:36:53.106Z,7.26
2023-02-14T20:39:22.583Z,7.27
2023-02-14T20:41:50.664Z,7.17
2023-02-14T20:44:21.541Z,7.10
2023-02-14T20:46:51.433Z,7.15
2023-02-14T20:49:21.340Z,7.15
2023-02-14T20:51:50.629Z,6.83
2023-02-14T20:54:19.097Z,6.82
2023-02-14T20:56:47.255Z,7.05
2023-02-14T20:59:15.672Z,7.41
2023-02-14T21:01:43.545Z,6.99
2023-02-14T21:04:11.438Z,6.92
2023-02-14T21:06:40.559Z,6.84
2023-02-14T21:09:08.600Z,7.47
2023-02-14T21:11:36.685Z,7.59
2023-02-14T21:14:04.547Z,7.18
2023-02-14T21:16:32.406Z,7.00
2023-02-14T21:19:00.977Z,7.07
2023-02-14T21:21:32.655Z,7.14
2023-02-14T21:24:04.072Z,6.93
2023-02-14T21:26:32.168Z,7.15
2023-02-14T21:28:59.961Z,7.09
2023-02-14T21:31:27.816Z,7.31
2023-02-14T21:33:57.147Z,7.26
2023-02-14T21:36:26.611Z,7.17
2023-02-14T21:38:56.852Z,7.17
2023-02-14T21:41:27.801Z,7.03
2023-02-14T21:43:57.192Z,7.08
2023-02-14T21:46:27.585Z,7.11
2023-02-14T21:49:13.586Z,7.20
2023-02-14T21:51:41.500Z,7.14
2023-02-14T21:54:09.611Z,6.91
2023-02-14T21:56:41.500Z,6.91
2023-02-14T21:59:10.491Z,6.89
2023-02-14T22:01:41.041Z,6.67
2023-02-14T22:04:10.437Z,6.84
2023-02-14T22:06:40.950Z,6.38
2023-02-14T22:09:09.498Z,6.43
2023-02-14T22:11:39.840Z,6.33
2023-02-14T22:14:07.586Z,6.55
2023-02-14T22:16:36.756Z,6.52
2023-02-14T22:19:05.154Z,6.63
2023-02-14T22:21:33.423Z,6.84
2023-02-14T22:24:01.931Z,6.54
2023-02-14T22:26:31.372Z,6.47
2023-02-14T22:29:02.095Z,6.34
2023-02-14T22:31:33.921Z,6.34
2023-02-14T22:34:01.926Z,6.27
2023-02-14T22:36:29.715Z,6.02
2023-02-14T22:38:57.491Z,6.04
2023-02-14T22:41:26.515Z,6.12
2023-02-14T22:43:55.500Z,6.31
2023-02-14T22:46:26.727Z,6.44
2023-02-14T22:48:55.576Z,6.28
2023-02-14T22:51:25.019Z,6.26
2023-02-14T22:53:55.072Z,6.38
2023-02-14T22:56:25.128Z,6.06
2023-02-14T22:58:55.102Z,5.67
2023-02-14T23:01:25.086Z,5.93
2023-02-14T23:03:54.903Z,6.08
2023-02-14T23:06:23.138Z,5.85
2023-02-14T23:08:51.230Z,5.83
2023-02-14T23:11:21.032Z,5.90
2023-02-14T23:14:06.409Z,5.86
2023-02-14T23:17:07.529Z,5.80
2023-02-14T23:19:54.618Z,5.74
2023-02-14T23:22:24.695Z,5.80
2023-02-14T23:24:54.336Z,5.86
2023-02-14T23:27:23.756Z,5.93
2023-02-14T23:29:51.579Z,6.07
2023-02-14T23:32:20.739Z,5.67
2023-02-14T23:34:48.614Z,6.00
2023-02-14T23:37:16.625Z,6.10
2023-02-14T23:39:44.400Z,6.24
2023-02-14T23:42:13.666Z,6.38
2023-02-14T23:44:41.605Z,6.43
2023-02-14T23:47:10.217Z,6.27
2023-02-14T23:49:40.970Z,6.38
2023-02-14T23:52:10.681Z,6.49
2023-02-14T23:54:39.839Z,6.28
2023-02-14T23:57:08.752Z,6.19
2023-02-14T23:59:36.788Z,6.56
